Time;durP1;ratioP1;P1;durP2;ratioP2;P2;SDS_P1;SDS_P2;PMS_P1;PMS_P2;Temp;Humidity;BMP_temperature;BMP_pressure;BME280_temperature;BME280_humidity;BME280_pressure;Samples;Min_cycle;Max_cycle;Signal;HPM_P1;HPM_P2
2022/11/26 00:02:17;;;;;;;37.83;16.75;;;;;;;1.08;100.00;99423.16;4478713;31;20089;-74
2022/11/26 00:04:45;;;;;;;40.28;17.70;;;;;;;1.12;100.00;99422.16;4475089;32;20183;-74
2022/11/26 00:07:13;;;;;;;38.38;15.73;;;;;;;1.20;100.00;99427.00;4481536;32;20484;-75
2022/11/26 00:09:40;;;;;;;37.58;15.65;;;;;;;1.17;100.00;99432.28;4479243;32;20104;-74
2022/11/26 00:12:20;;;;;;;41.70;16.62;;;;;;;1.18;100.00;99439.97;4484900;31;20168;-74
2022/11/26 00:14:47;;;;;;;39.47;15.13;;;;;;;1.21;100.00;99437.25;4484640;31;20076;-73
2022/11/26 00:17:15;;;;;;;38.13;16.70;;;;;;;1.34;100.00;99445.31;4475366;31;20120;-74
2022/11/26 00:19:43;;;;;;;42.03;16.23;;;;;;;1.33;100.00;99442.81;4477762;31;20126;-75
2022/11/26 00:22:26;;;;;;;44.22;17.00;;;;;;;1.32;100.00;99441.97;4479215;32;20096;-74
2022/11/26 00:24:54;;;;;;;38.85;15.88;;;;;;;1.33;100.00;99448.84;4467914;32;20168;-75
2022/11/26 00:27:24;;;;;;;46.63;18.00;;;;;;;1.36;100.00;99446.13;4478180;31;20085;-74
2022/11/26 00:29:51;;;;;;;45.17;17.98;;;;;;;1.37;100.00;99441.78;4480281;32;20529;-74
2022/11/26 00:32:23;;;;;;;47.30;17.48;;;;;;;1.42;100.00;99445.00;4483393;31;20115;-74
2022/11/26 00:34:52;;;;;;;36.33;16.52;;;;;;;1.44;100.00;99442.38;4482790;31;20460;-75
2022/11/26 00:37:29;;;;;;;42.05;16.48;;;;;;;1.52;100.00;99443.75;4482593;31;20152;-75
2022/11/26 00:39:57;;;;;;;51.63;15.88;;;;;;;1.54;100.00;99435.94;4481204;32;20091;-75
2022/11/26 00:42:24;;;;;;;48.97;16.98;;;;;;;1.52;100.00;99443.75;4481335;32;20108;-75
2022/11/26 00:44:51;;;;;;;63.63;17.08;;;;;;;1.50;100.00;99442.97;4482393;31;20088;-75
2022/11/26 00:47:18;;;;;;;37.83;16.55;;;;;;;1.58;100.00;99452.97;4482675;31;20092;-75
2022/11/26 00:49:45;;;;;;;63.10;17.48;;;;;;;1.60;100.00;99446.00;4482175;31;20553;-75
2022/11/26 00:52:32;;;;;;;59.88;17.42;;;;;;;1.61;100.00;99452.03;4482247;31;20518;-75
2022/11/26 00:55:02;;;;;;;77.00;16.23;;;;;;;1.62;100.00;99448.53;4482175;31;20510;-75
2022/11/26 00:57:29;;;;;;;83.50;18.10;;;;;;;1.63;100.00;99448.47;4480597;32;20092;-75
2022/11/26 00:59:56;;;;;;;80.35;18.73;;;;;;;1.63;100.00;99452.78;4482028;31;20108;-75
2022/11/26 01:02:24;;;;;;;119.37;18.35;;;;;;;1.64;100.00;99457.06;4482719;31;20116;-75
2022/11/26 01:04:51;;;;;;;100.43;20.33;;;;;;;1.68;100.00;99456.88;4483950;31;20093;-75
2022/11/26 01:07:18;;;;;;;113.35;18.50;;;;;;;1.57;100.00;99459.03;4484005;31;20148;-75
2022/11/26 01:09:46;;;;;;;91.12;18.40;;;;;;;1.57;100.00;99462.47;4483744;31;20509;-75
2022/11/26 01:12:14;;;;;;;63.28;16.95;;;;;;;1.61;100.00;99458.03;4482644;32;20107;-74
2022/11/26 01:14:41;;;;;;;99.65;18.77;;;;;;;1.68;100.00;99458.59;4483487;31;20076;-74
2022/11/26 01:17:11;;;;;;;150.12;20.67;;;;;;;1.70;100.00;99457.63;4483852;31;20096;-75
2022/11/26 01:19:38;;;;;;;114.93;19.90;;;;;;;1.68;100.00;99466.34;4481851;32;20118;-75
2022/11/26 01:22:05;;;;;;;74.50;20.75;;;;;;;1.70;100.00;99459.37;4468081;32;20560;-74
2022/11/26 01:24:32;;;;;;;100.03;19.85;;;;;;;1.69;100.00;99466.28;4467813;32;20160;-75
2022/11/26 01:26:59;;;;;;;72.20;19.37;;;;;;;1.69;100.00;99460.28;4467767;32;20168;-74
2022/11/26 01:29:26;;;;;;;83.85;20.40;;;;;;;1.72;100.00;99466.16;4467926;32;20100;-75
2022/11/26 01:31:53;;;;;;;59.88;17.40;;;;;;;1.80;100.00;99467.56;4467943;32;20149;-74
2022/11/26 01:34:21;;;;;;;85.85;18.90;;;;;;;1.86;100.00;99463.00;4467720;32;20183;-75
2022/11/26 01:36:48;;;;;;;42.35;16.60;;;;;;;1.80;100.00;99468.41;4469319;32;20149;-74
2022/11/26 01:39:19;;;;;;;83.70;18.37;;;;;;;1.74;100.00;99458.34;4469998;32;20159;-75
2022/11/26 01:42:17;;;;;;;75.80;17.92;;;;;;;1.73;100.00;99456.69;4470184;32;20080;-75
2022/11/26 01:44:45;;;;;;;112.97;23.12;;;;;;;1.64;100.00;99465.66;4468754;32;20563;-75
2022/11/26 01:47:38;;;;;;;68.20;17.85;;;;;;;1.53;100.00;99460.91;4470194;32;20159;-74
2022/11/26 01:50:35;;;;;;;61.00;16.73;;;;;;;1.58;100.00;99464.16;4468124;32;20218;-75
2022/11/26 01:53:11;;;;;;;62.13;16.42;;;;;;;1.62;100.00;99464.88;4459818;32;20146;-74
2022/11/26 01:55:48;;;;;;;55.20;16.00;;;;;;;1.59;100.00;99459.84;4469141;32;20119;-74
2022/11/26 01:58:17;;;;;;;61.22;16.33;;;;;;;1.56;100.00;99457.34;4470369;32;20113;-74
2022/11/26 02:00:46;;;;;;;65.95;16.95;;;;;;;1.61;100.00;99452.03;4470047;32;20491;-74
2022/11/26 02:03:14;;;;;;;55.53;15.40;;;;;;;1.57;100.00;99454.72;4468891;32;20109;-74
2022/11/26 02:05:47;;;;;;;46.37;14.95;;;;;;;1.57;100.00;99446.13;4469865;32;20593;-74
2022/11/26 02:08:14;;;;;;;46.63;15.82;;;;;;;1.44;100.00;99455.28;4473120;32;20128;-74
2022/11/26 02:10:41;;;;;;;57.62;15.00;;;;;;;1.46;100.00;99458.66;4484231;32;20817;-74
2022/11/26 02:13:08;;;;;;;55.58;15.32;;;;;;;1.36;100.00;99464.19;4485794;31;20172;-74
2022/11/26 02:16:10;;;;;;;42.70;14.23;;;;;;;1.27;100.00;99469.69;4485415;31;20501;-74
2022/11/26 02:18:40;;;;;;;52.08;15.30;;;;;;;1.26;100.00;99465.47;4483207;32;20104;-74
2022/11/26 02:21:14;;;;;;;74.50;17.42;;;;;;;1.23;100.00;99460.41;4474190;32;20553;-74
2022/11/26 02:23:50;;;;;;;113.60;18.62;;;;;;;1.13;100.00;99466.84;4469806;32;20522;-75
2022/11/26 02:26:24;;;;;;;79.35;16.27;;;;;;;1.16;100.00;99462.38;4470066;32;20472;-74
2022/11/26 02:29:02;;;;;;;122.68;19.62;;;;;;;1.28;100.00;99462.81;4469850;32;20111;-74
2022/11/26 02:31:35;;;;;;;62.10;16.45;;;;;;;1.24;100.00;99468.09;4469856;32;20436;-74
2022/11/26 02:34:11;;;;;;;77.32;16.00;;;;;;;1.23;100.00;99470.75;4469723;32;20158;-75
2022/11/26 02:36:52;;;;;;;64.78;12.85;;;;;;;1.22;100.00;99472.47;4469822;32;20069;-74
2022/11/26 02:39:22;;;;;;;63.87;14.60;;;;;;;1.16;100.00;99477.88;4469730;32;20112;-74
2022/11/26 02:42:01;;;;;;;113.15;16.73;;;;;;;1.08;100.00;99485.09;4469834;32;20096;-74
2022/11/26 02:44:39;;;;;;;157.48;15.82;;;;;;;0.99;100.00;99481.13;4469813;32;20088;-74
2022/11/26 02:47:11;;;;;;;151.93;15.88;;;;;;;0.90;100.00;99490.97;4468053;32;20084;-74
2022/11/26 02:49:41;;;;;;;77.00;13.50;;;;;;;0.87;100.00;99491.91;4468421;32;20196;-74
2022/11/26 02:52:09;;;;;;;68.65;13.15;;;;;;;0.85;100.00;99489.38;4469741;32;20507;-74
2022/11/26 02:54:36;;;;;;;100.68;12.10;;;;;;;0.82;100.00;99491.25;4468081;32;20207;-74
2022/11/26 02:57:06;;;;;;;126.68;15.75;;;;;;;0.77;100.00;99488.81;4469562;32;20194;-74
2022/11/26 02:59:33;;;;;;;102.30;11.98;;;;;;;0.72;100.00;99493.31;4468241;32;20446;-74
2022/11/26 03:02:15;;;;;;;62.83;12.23;;;;;;;0.68;100.00;99492.59;4455635;32;20164;-74
2022/11/26 03:04:46;;;;;;;43.60;12.55;;;;;;;0.60;100.00;99496.34;4468631;32;20175;-74
2022/11/26 03:07:13;;;;;;;60.25;12.63;;;;;;;0.55;100.00;99493.94;4469731;32;20115;-74
2022/11/26 03:09:52;;;;;;;64.12;12.77;;;;;;;0.52;100.00;99502.62;4483648;32;20105;-74
2022/11/26 03:12:20;;;;;;;30.88;10.48;;;;;;;0.44;100.00;99504.66;4485626;31;20139;-74
2022/11/26 03:14:47;;;;;;;30.00;11.63;;;;;;;0.33;100.00;99507.59;4485119;31;20465;-75
2022/11/26 03:17:15;;;;;;;25.50;10.93;;;;;;;0.27;100.00;99515.56;4485099;31;20141;-74
2022/11/26 03:19:42;;;;;;;26.40;10.75;;;;;;;0.31;100.00;99516.28;4484425;31;20540;-74
2022/11/26 03:22:10;;;;;;;33.30;10.57;;;;;;;0.33;100.00;99519.63;4469386;32;20461;-74
2022/11/26 03:24:37;;;;;;;45.40;11.12;;;;;;;0.26;100.00;99513.00;4469368;32;20152;-75
2022/11/26 03:27:05;;;;;;;48.92;11.80;;;;;;;0.26;100.00;99520.72;4469223;32;20148;-74
2022/11/26 03:29:32;;;;;;;28.67;10.70;;;;;;;0.30;100.00;99518.03;4469397;32;20101;-75
2022/11/26 03:31:59;;;;;;;43.70;10.55;;;;;;;0.37;100.00;99523.78;4469652;32;20176;-75
2022/11/26 03:34:26;;;;;;;27.00;9.65;;;;;;;0.46;100.00;99528.63;4469576;32;20127;-75
2022/11/26 03:36:53;;;;;;;53.80;11.10;;;;;;;0.48;100.00;99526.81;4469266;32;20081;-74
2022/11/26 03:39:20;;;;;;;84.70;13.50;;;;;;;0.49;100.00;99528.50;4469503;32;20135;-75
2022/11/26 03:41:48;;;;;;;107.22;13.85;;;;;;;0.49;100.00;99533.66;4469111;32;20120;-74
2022/11/26 03:44:15;;;;;;;133.25;16.08;;;;;;;0.45;100.00;99526.94;4469679;32;20518;-74
2022/11/26 03:46:42;;;;;;;139.55;15.30;;;;;;;0.41;100.00;99524.50;4469470;32;20097;-74
2022/11/26 03:49:09;;;;;;;110.95;15.68;;;;;;;0.43;100.00;99533.06;4469180;32;20169;-74
2022/11/26 03:51:36;;;;;;;123.53;15.43;;;;;;;0.44;100.00;99535.56;4469196;32;20148;-74
2022/11/26 03:54:03;;;;;;;99.35;14.32;;;;;;;0.53;100.00;99535.25;4469125;32;20139;-74
2022/11/26 03:56:31;;;;;;;105.72;14.70;;;;;;;0.60;100.00;99538.44;4469048;32;20105;-74
2022/11/26 03:58:58;;;;;;;73.45;14.13;;;;;;;0.66;100.00;99538.22;4468288;32;20474;-74
2022/11/26 04:01:25;;;;;;;92.07;15.15;;;;;;;0.68;100.00;99539.00;4469010;32;20123;-74
2022/11/26 04:03:52;;;;;;;127.03;17.62;;;;;;;0.72;100.00;99538.91;4469316;32;20198;-75
2022/11/26 04:06:19;;;;;;;55.45;15.05;;;;;;;0.67;100.00;99541.66;4468984;32;20406;-74
2022/11/26 04:08:46;;;;;;;48.63;15.27;;;;;;;0.70;100.00;99538.97;4477250;32;20143;-74
2022/11/26 04:11:14;;;;;;;108.20;15.90;;;;;;;0.77;100.00;99537.81;4484610;31;20104;-74
2022/11/26 04:13:41;;;;;;;48.05;15.20;;;;;;;0.90;100.00;99545.97;4484587;31;20156;-74
2022/11/26 04:16:08;;;;;;;40.83;13.48;;;;;;;0.94;100.00;99539.78;4484717;31;20088;-74
2022/11/26 04:18:35;;;;;;;53.10;14.05;;;;;;;0.86;100.00;99552.13;4484661;32;20173;-75
2022/11/26 04:21:06;;;;;;;51.13;14.55;;;;;;;0.90;100.00;99552.88;4475394;31;20135;-75
2022/11/26 04:23:33;;;;;;;81.40;15.60;;;;;;;0.92;100.00;99544.16;4469032;32;20105;-74
2022/11/26 04:26:00;;;;;;;72.97;15.00;;;;;;;0.96;100.00;99550.87;4468681;32;20461;-74
2022/11/26 04:28:27;;;;;;;116.15;18.90;;;;;;;0.91;100.00;99549.38;4468887;32;20164;-74
2022/11/26 04:30:56;;;;;;;56.25;14.87;;;;;;;0.81;100.00;99554.88;4468857;32;20118;-74
2022/11/26 04:33:25;;;;;;;46.42;13.70;;;;;;;0.86;100.00;99552.97;4468747;32;20453;-74
2022/11/26 04:35:53;;;;;;;55.22;14.68;;;;;;;0.96;100.00;99562.94;4468746;32;20173;-74
2022/11/26 04:38:20;;;;;;;71.62;15.13;;;;;;;1.06;100.00;99559.13;4468541;32;20100;-74
2022/11/26 04:40:52;;;;;;;68.47;16.25;;;;;;;1.15;100.00;99565.66;4468917;32;20202;-74
2022/11/26 04:43:20;;;;;;;85.57;15.45;;;;;;;1.18;100.00;99566.41;4468570;32;20114;-74
2022/11/26 04:45:47;;;;;;;109.68;16.25;;;;;;;1.17;100.00;99566.47;4468619;32;20123;-75
2022/11/26 04:48:14;;;;;;;37.63;14.23;;;;;;;1.23;100.00;99572.22;4468356;32;20165;-74
2022/11/26 04:50:41;;;;;;;53.05;15.07;;;;;;;1.32;100.00;99576.22;4468265;32;20119;-74
2022/11/26 04:53:09;;;;;;;127.03;17.30;;;;;;;1.39;100.00;99579.38;4468130;32;20559;-74
2022/11/26 04:55:36;;;;;;;59.13;14.63;;;;;;;1.39;100.00;99576.81;4468326;32;20605;-74
2022/11/26 04:58:03;;;;;;;100.25;17.35;;;;;;;1.40;100.00;99575.91;4467857;32;20097;-74
2022/11/26 05:00:30;;;;;;;97.30;16.62;;;;;;;1.42;100.00;99581.84;4468311;32;20497;-74
2022/11/26 05:02:57;;;;;;;102.45;16.15;;;;;;;1.40;100.00;99589.66;4467772;32;20143;-74
2022/11/26 05:05:24;;;;;;;88.90;15.77;;;;;;;1.39;100.00;99602.63;4468230;32;20093;-74
2022/11/26 05:07:51;;;;;;;84.82;16.50;;;;;;;1.38;100.00;99603.53;4469986;32;20105;-74
2022/11/26 05:10:19;;;;;;;90.03;14.60;;;;;;;1.38;100.00;99606.13;4484607;31;20179;-74
2022/11/26 05:12:46;;;;;;;121.72;16.00;;;;;;;1.39;100.00;99608.66;4486073;31;20100;-75
2022/11/26 05:15:13;;;;;;;114.85;18.00;;;;;;;1.40;100.00;99606.91;4486071;31;20103;-74
2022/11/26 05:17:40;;;;;;;97.47;14.55;;;;;;;1.47;100.00;99610.06;4485850;31;20202;-74
2022/11/26 05:20:08;;;;;;;116.05;15.63;;;;;;;1.49;100.00;99613.44;4482562;31;20118;-74
2022/11/26 05:22:35;;;;;;;117.47;16.95;;;;;;;1.41;100.00;99612.00;4470123;32;20100;-74
2022/11/26 05:25:03;;;;;;;69.15;15.65;;;;;;;1.35;100.00;99612.22;4470380;32;20203;-75
2022/11/26 05:27:30;;;;;;;89.93;16.83;;;;;;;1.36;100.00;99610.47;4469862;32;20093;-74
2022/11/26 05:29:57;;;;;;;84.37;15.40;;;;;;;1.32;100.00;99606.34;4470074;32;20156;-74
2022/11/26 05:32:24;;;;;;;74.87;17.15;;;;;;;1.29;100.00;99616.75;4470206;32;20159;-74
2022/11/26 05:34:51;;;;;;;100.22;15.18;;;;;;;1.26;100.00;99615.16;4470095;32;20105;-74
2022/11/26 05:37:26;;;;;;;76.97;15.48;;;;;;;1.27;100.00;99624.56;4470188;32;20152;-74
2022/11/26 05:39:53;;;;;;;89.03;15.25;;;;;;;1.29;100.00;99627.09;4470411;32;20153;-74
2022/11/26 05:42:20;;;;;;;63.53;14.30;;;;;;;1.19;100.00;99630.00;4469982;32;20167;-75
2022/11/26 05:44:47;;;;;;;91.80;16.10;;;;;;;1.16;100.00;99632.72;4470078;32;20423;-74
2022/11/26 05:47:14;;;;;;;58.38;14.87;;;;;;;1.17;100.00;99633.56;4470088;32;20092;-74
2022/11/26 05:49:41;;;;;;;59.20;14.35;;;;;;;1.16;100.00;99632.72;4470172;32;20161;-74
2022/11/26 05:52:08;;;;;;;64.50;14.00;;;;;;;1.15;100.00;99638.78;4470240;32;20172;-75
2022/11/26 05:54:35;;;;;;;123.78;16.23;;;;;;;1.12;100.00;99649.22;4469947;32;20103;-74
2022/11/26 05:57:03;;;;;;;55.95;15.35;;;;;;;1.10;100.00;99647.59;4470199;32;20458;-74
2022/11/26 05:59:30;;;;;;;90.62;13.55;;;;;;;1.16;100.00;99645.63;4470040;32;20176;-74
2022/11/26 06:01:57;;;;;;;123.55;15.70;;;;;;;1.17;100.00;99652.47;4470137;32;20470;-74
2022/11/26 06:04:25;;;;;;;116.20;14.50;;;;;;;1.16;100.00;99644.78;4469898;32;20139;-74
2022/11/26 06:06:52;;;;;;;117.68;15.98;;;;;;;1.15;100.00;99656.84;4470108;32;20097;-74
2022/11/26 06:09:19;;;;;;;112.55;13.90;;;;;;;1.13;100.00;99656.06;4481438;32;20557;-74
2022/11/26 06:11:50;;;;;;;154.38;16.85;;;;;;;1.19;100.00;99655.81;4485922;31;20178;-74
2022/11/26 06:14:17;;;;;;;82.45;13.55;;;;;;;1.22;100.00;99657.47;4485507;31;20104;-74
2022/11/26 06:16:44;;;;;;;97.88;15.35;;;;;;;1.29;100.00;99658.94;4485548;31;20438;-74
2022/11/26 06:19:12;;;;;;;96.15;13.85;;;;;;;1.20;100.00;99662.69;4485348;32;20088;-74
2022/11/26 06:21:39;;;;;;;92.28;13.73;;;;;;;1.15;100.00;99664.59;4471951;31;20116;-74
2022/11/26 06:24:06;;;;;;;79.40;14.93;;;;;;;1.30;100.00;99663.16;4469583;32;20563;-74
2022/11/26 06:26:33;;;;;;;73.35;14.40;;;;;;;1.30;100.00;99670.91;4469780;32;20434;-74
2022/11/26 06:29:00;;;;;;;73.37;15.13;;;;;;;1.36;100.00;99669.84;4469780;32;20157;-74
2022/11/26 06:31:27;;;;;;;75.80;15.82;;;;;;;1.32;100.00;99668.31;4469840;32;20465;-74
2022/11/26 06:33:55;;;;;;;94.95;15.55;;;;;;;1.35;100.00;99674.19;4469949;32;20450;-74
2022/11/26 06:36:22;;;;;;;70.28;16.23;;;;;;;1.40;100.00;99668.84;4469891;32;20109;-74
2022/11/26 06:38:49;;;;;;;109.60;18.77;;;;;;;1.49;100.00;99671.09;4469620;32;20104;-74
2022/11/26 06:41:17;;;;;;;85.10;17.33;;;;;;;1.41;100.00;99673.13;4469623;32;20116;-74
2022/11/26 06:43:44;;;;;;;103.20;17.45;;;;;;;1.42;100.00;99670.50;4469616;32;20140;-74
2022/11/26 06:46:11;;;;;;;64.07;16.60;;;;;;;1.46;100.00;99680.69;4468268;32;20907;-74
2022/11/26 06:48:39;;;;;;;71.28;16.40;;;;;;;1.52;100.00;99683.88;4469759;32;20367;-74
2022/11/26 06:51:13;;;;;;;74.07;17.37;;;;;;;1.68;100.00;99683.31;4469501;32;20096;-74
2022/11/26 06:53:40;;;;;;;76.65;17.08;;;;;;;1.80;100.00;99689.75;4469777;32;20148;-74
2022/11/26 06:56:11;;;;;;;58.63;15.25;;;;;;;1.87;100.00;99693.78;4469428;32;20109;-74
2022/11/26 06:58:46;;;;;;;91.80;16.62;;;;;;;2.01;100.00;99699.25;4469529;32;20159;-74
2022/11/26 07:01:15;;;;;;;93.93;16.20;;;;;;;2.02;100.00;99697.53;4469503;32;20115;-74
2022/11/26 07:03:42;;;;;;;56.40;14.90;;;;;;;2.11;100.00;99699.75;4469419;32;20172;-74
2022/11/26 07:06:20;;;;;;;61.33;15.77;;;;;;;2.16;100.00;99700.38;4469558;32;20680;-74
2022/11/26 07:08:48;;;;;;;90.45;16.20;;;;;;;2.15;100.00;99703.91;4477606;32;20100;-74
2022/11/26 07:11:16;;;;;;;71.28;16.83;;;;;;;2.24;100.00;99713.88;4485535;31;20104;-74
2022/11/26 07:13:43;;;;;;;41.85;15.00;;;;;;;2.31;100.00;99711.87;4485057;31;20096;-74
2022/11/26 07:16:10;;;;;;;78.05;17.15;;;;;;;2.49;100.00;99699.94;4485405;31;20164;-74
2022/11/26 07:18:38;;;;;;;89.78;18.52;;;;;;;2.48;100.00;99711.19;4485575;31;20506;-74
2022/11/26 07:21:14;;;;;;;86.18;18.40;;;;;;;2.46;100.00;99711.25;4475767;31;20104;-74
2022/11/26 07:23:41;;;;;;;54.53;16.62;;;;;;;2.41;100.00;99714.94;4469519;32;20135;-74
2022/11/26 07:26:10;;;;;;;73.22;15.45;;;;;;;2.53;100.00;99717.03;4469349;32;20158;-74
2022/11/26 07:28:37;;;;;;;44.42;16.05;;;;;;;2.65;100.00;99720.84;4469444;32;20157;-74
2022/11/26 07:31:07;;;;;;;60.25;17.73;;;;;;;2.72;100.00;99718.84;4469380;32;20145;-74
2022/11/26 07:33:42;;;;;;;52.28;18.15;;;;;;;2.73;100.00;99715.38;4469439;32;20379;-74
2022/11/26 07:36:17;;;;;;;57.95;15.60;;;;;;;2.88;100.00;99725.06;4469437;32;20093;-74
2022/11/26 07:38:44;;;;;;;62.22;15.45;;;;;;;2.97;100.00;99722.09;4469571;32;20097;-74
2022/11/26 07:41:15;;;;;;;74.93;15.30;;;;;;;2.84;100.00;99720.91;4468231;32;20466;-74
2022/11/26 07:43:42;;;;;;;86.37;15.85;;;;;;;2.78;100.00;99721.19;4468074;32;20431;-74
2022/11/26 07:46:12;;;;;;;77.57;14.63;;;;;;;2.58;100.00;99727.19;4469390;32;20567;-74
2022/11/26 07:48:40;;;;;;;110.40;16.90;;;;;;;2.62;100.00;99727.00;4469567;32;20114;-74
2022/11/26 07:51:12;;;;;;;100.87;15.57;;;;;;;2.57;100.00;99744.44;4472665;32;20497;-74
2022/11/26 07:53:40;;;;;;;60.12;13.15;;;;;;;2.57;100.00;99728.91;4482719;32;20263;-74
2022/11/26 07:56:07;;;;;;;56.13;13.27;;;;;;;2.78;100.00;99722.00;4484705;31;20232;-74
2022/11/26 07:58:34;;;;;;;74.50;13.65;;;;;;;3.04;100.00;99727.00;4482234;31;84233;-74
2022/11/26 08:01:06;;;;;;;82.85;14.25;;;;;;;3.14;100.00;99726.53;4484785;31;20084;-74
2022/11/26 08:03:39;;;;;;;79.28;14.85;;;;;;;3.23;100.00;99730.47;4485288;31;20492;-74
2022/11/26 08:06:11;;;;;;;79.95;16.15;;;;;;;3.33;100.00;99723.12;4484816;31;20112;-74
2022/11/26 08:08:40;;;;;;;72.28;13.70;;;;;;;3.14;100.00;99736.06;4477770;31;20208;-74
2022/11/26 08:11:24;;;;;;;99.65;15.32;;;;;;;3.04;100.00;99737.34;4468969;32;20093;-73
2022/11/26 08:14:00;;;;;;;83.80;15.40;;;;;;;3.09;100.00;99748.34;4469254;32;20743;-73
2022/11/26 08:16:27;;;;;;;53.70;14.32;;;;;;;3.11;100.00;99751.72;4468782;32;20115;-73
2022/11/26 08:18:57;;;;;;;45.83;13.40;;;;;;;3.19;100.00;99754.81;4469035;32;20436;-73
2022/11/26 08:21:24;;;;;;;45.92;13.45;;;;;;;3.32;100.00;99758.56;4480321;32;20450;-73
2022/11/26 08:23:52;;;;;;;31.20;15.10;;;;;;;3.28;100.00;99758.75;4484591;31;20088;-73
2022/11/26 08:26:20;;;;;;;36.08;14.48;;;;;;;3.11;100.00;99759.50;4484653;31;20210;-73
2022/11/26 08:28:53;;;;;;;30.58;14.30;;;;;;;3.14;100.00;99769.72;4484523;31;20163;-73
2022/11/26 08:31:23;;;;;;;28.80;13.20;;;;;;;3.18;100.00;99764.34;4484581;31;20522;-73
2022/11/26 08:33:50;;;;;;;27.00;13.73;;;;;;;3.16;100.00;99773.06;4484569;31;20072;-73
2022/11/26 08:36:17;;;;;;;28.02;13.23;;;;;;;3.13;100.00;99768.03;4484306;31;20100;-73
2022/11/26 08:38:45;;;;;;;31.10;14.57;;;;;;;3.28;100.00;99767.34;4484517;31;20084;-73
2022/11/26 08:41:12;;;;;;;31.98;14.77;;;;;;;3.24;100.00;99771.00;4484261;32;20144;-73
2022/11/26 08:43:39;;;;;;;34.47;15.98;;;;;;;3.44;100.00;99769.31;4484458;31;20744;-73
2022/11/26 08:46:27;;;;;;;33.90;16.10;;;;;;;3.42;100.00;99779.72;4485690;31;20108;-73
2022/11/26 08:48:55;;;;;;;35.45;16.40;;;;;;;3.38;100.00;99784.19;4486434;31;20115;-73
2022/11/26 08:51:23;;;;;;;28.87;15.02;;;;;;;3.62;100.00;99786.63;4486203;31;20220;-73
2022/11/26 08:53:51;;;;;;;32.33;15.25;;;;;;;3.70;100.00;99787.13;4486253;31;20091;-73
2022/11/26 08:56:19;;;;;;;29.17;13.85;;;;;;;3.81;100.00;99790.97;4486002;31;20193;-73
2022/11/26 08:58:47;;;;;;;29.77;14.10;;;;;;;3.87;100.00;99786.34;4486106;32;20167;-73
2022/11/26 09:01:20;;;;;;;29.50;15.43;;;;;;;3.84;100.00;99790.84;4486171;31;20176;-73
2022/11/26 09:03:52;;;;;;;27.73;14.00;;;;;;;3.96;100.00;99782.50;4486255;31;20141;-73
2022/11/26 09:06:21;;;;;;;29.58;15.35;;;;;;;3.95;100.00;99786.03;4486153;31;20119;-73
2022/11/26 09:11:37;;;;;;;28.35;14.77;;;;;;;4.12;100.00;99779.19;4470394;32;20850;-73
2022/11/26 09:14:05;;;;;;;31.05;14.75;;;;;;;4.09;100.00;99786.22;4470505;32;20172;-74
2022/11/26 09:16:32;;;;;;;32.42;15.85;;;;;;;4.14;100.00;99790.38;4470111;32;20148;-73
2022/11/26 09:19:00;;;;;;;27.15;13.40;;;;;;;3.99;100.00;99782.38;4470663;32;20146;-73
2022/11/26 09:21:27;;;;;;;29.87;15.48;;;;;;;4.11;100.00;99793.94;4482217;32;20149;-73
2022/11/26 09:23:55;;;;;;;32.50;15.30;;;;;;;4.08;100.00;99783.69;4486086;31;20088;-74
2022/11/26 09:26:23;;;;;;;37.15;15.95;;;;;;;3.92;100.00;99791.31;4485872;31;20101;-73
2022/11/26 09:28:50;;;;;;;31.70;15.18;;;;;;;3.95;100.00;99796.41;4486018;31;20155;-73
2022/11/26 09:31:18;;;;;;;29.42;15.82;;;;;;;3.98;100.00;99793.66;4486089;31;20084;-73
2022/11/26 09:33:48;;;;;;;32.40;16.25;;;;;;;4.02;100.00;99791.75;4485934;32;20111;-73
2022/11/26 09:36:16;;;;;;;33.92;16.27;;;;;;;4.11;100.00;99798.28;4486006;31;20104;-73
2022/11/26 09:38:43;;;;;;;35.10;16.75;;;;;;;4.11;100.00;99798.28;4486000;31;20122;-74
2022/11/26 09:41:23;;;;;;;35.05;16.80;;;;;;;4.16;100.00;99798.91;4486157;31;20204;-73
2022/11/26 09:44:08;;;;;;;29.80;15.88;;;;;;;4.14;100.00;99798.97;4486036;31;20094;-74
2022/11/26 09:47:14;;;;;;;30.10;15.48;;;;;;;4.19;100.00;99796.16;4486115;31;20453;-74
2022/11/26 09:49:54;;;;;;;34.05;16.42;;;;;;;4.44;100.00;99803.66;4486251;31;20156;-74
2022/11/26 09:52:25;;;;;;;33.83;15.75;;;;;;;4.48;100.00;99805.19;4485974;31;20196;-74
2022/11/26 09:54:59;;;;;;;29.33;14.80;;;;;;;4.78;100.00;99804.63;4486021;31;20191;-74
2022/11/26 09:57:34;;;;;;;28.95;14.70;;;;;;;4.74;100.00;99808.25;4484702;31;20150;-74
2022/11/26 10:00:03;;;;;;;30.73;15.43;;;;;;;4.87;100.00;99803.34;4484647;32;20113;-74
2022/11/26 10:02:30;;;;;;;29.48;15.68;;;;;;;5.17;100.00;99797.53;4484545;32;20173;-74
2022/11/26 10:04:58;;;;;;;28.98;15.27;;;;;;;5.29;100.00;99794.31;4484700;32;20111;-74
2022/11/26 10:07:43;;;;;;;26.77;14.82;;;;;;;5.45;100.00;99803.00;4486019;32;20123;-74
2022/11/26 10:10:19;;;;;;;27.42;15.55;;;;;;;5.61;100.00;99799.62;4470315;32;20080;-74
2022/11/26 10:13:40;;;;;;;28.60;15.48;;;;;;;5.85;100.00;99792.28;4470150;32;20179;-74
2022/11/26 10:16:35;;;;;;;28.65;14.63;;;;;;;6.20;100.00;99802.56;4405916;32;20168;-74
2022/11/26 10:19:22;;;;;;;26.90;13.30;;;;;;;6.02;100.00;99807.00;4405770;32;20898;-74
2022/11/26 10:21:52;;;;;;;24.98;12.37;;;;;;;5.87;100.00;99811.22;4419894;32;20144;-74
2022/11/26 10:24:40;;;;;;;25.52;12.65;;;;;;;5.85;100.00;99813.91;4421343;32;20153;-74
2022/11/26 10:27:17;;;;;;;30.65;13.73;;;;;;;5.82;100.00;99811.47;4421000;32;20136;-74
2022/11/26 10:29:53;;;;;;;26.23;13.32;;;;;;;5.71;100.00;99820.75;4421483;32;20113;-74
2022/11/26 10:32:25;;;;;;;31.15;13.95;;;;;;;5.40;100.00;99823.19;4408508;32;20204;-74
2022/11/26 10:34:54;;;;;;;31.90;12.93;;;;;;;5.42;100.00;99823.97;4421223;32;20143;-74
2022/11/26 10:37:24;;;;;;;32.83;14.38;;;;;;;5.34;100.00;99818.28;4421268;32;20113;-74
2022/11/26 10:40:11;;;;;;;30.80;14.45;;;;;;;5.28;100.00;99816.00;4421144;32;20129;-74
2022/11/26 10:42:41;;;;;;;27.27;13.57;;;;;;;5.27;100.00;99814.34;4421318;32;20220;-74
2022/11/26 10:45:20;;;;;;;32.13;14.30;;;;;;;5.44;100.00;99822.09;4421266;32;20140;-74
2022/11/26 10:47:48;;;;;;;33.33;15.48;;;;;;;5.52;100.00;99816.53;4421046;32;20193;-74
2022/11/26 10:50:23;;;;;;;35.33;16.10;;;;;;;5.50;100.00;99821.78;4452464;32;20146;-74
2022/11/26 10:53:23;;;;;;;33.42;14.87;;;;;;;5.52;100.00;99821.72;4469679;32;20438;-74
2022/11/26 10:55:52;;;;;;;37.33;14.90;;;;;;;5.52;100.00;99819.13;4468741;32;20554;-74
2022/11/26 10:58:32;;;;;;;33.58;15.00;;;;;;;5.47;100.00;99819.34;4468289;32;20159;-74
2022/11/26 11:01:01;;;;;;;33.92;14.60;;;;;;;5.35;100.00;99813.97;4468420;32;20088;-74
2022/11/26 11:03:39;;;;;;;38.95;15.80;;;;;;;5.30;100.00;99820.22;4469901;32;20089;-74
2022/11/26 11:06:35;;;;;;;33.95;16.30;;;;;;;5.21;100.00;99818.09;4469055;32;20137;-74
2022/11/26 11:09:23;;;;;;;40.63;16.02;;;;;;;5.38;100.00;99812.03;4477871;32;20452;-74
2022/11/26 11:12:09;;;;;;;36.80;14.45;;;;;;;5.36;100.00;99813.88;4485410;31;20111;-74
2022/11/26 11:14:39;;;;;;;39.65;15.18;;;;;;;5.45;100.00;99815.16;4485618;31;20101;-74
2022/11/26 11:17:23;;;;;;;38.40;14.93;;;;;;;5.49;100.00;99806.28;4485234;31;20096;-74
2022/11/26 11:19:50;;;;;;;36.03;16.12;;;;;;;5.67;100.00;99809.69;4483780;31;20076;-74
2022/11/26 11:22:21;;;;;;;39.35;16.20;;;;;;;5.68;100.00;99811.37;4469387;32;20114;-74
2022/11/26 11:24:48;;;;;;;38.72;16.73;;;;;;;5.61;100.00;99804.81;4469881;32;20092;-74
2022/11/26 11:27:45;;;;;;;40.17;15.60;;;;;;;5.58;100.00;99810.16;4468317;32;20225;-74
2022/11/26 11:30:31;;;;;;;37.67;16.75;;;;;;;5.59;100.00;99815.28;4408313;32;20111;-74
2022/11/26 11:33:22;;;;;;;43.75;17.33;;;;;;;5.72;100.00;99810.28;4421041;32;20117;-74
2022/11/26 11:36:14;;;;;;;40.78;16.92;;;;;;;5.80;100.00;99812.50;4420918;32;20274;-74
2022/11/26 11:38:46;;;;;;;38.78;18.37;;;;;;;5.54;100.00;99806.03;4420695;32;20133;-74